METAR Data
IDs: Format: Raw Decoded Include TAF

Data at: 1620 UTC 19 Sep 2018

K6A1 191555Z AUTO 17003KT 10SM 31/19 A3004 RMK AO2 T03130186
K6A1 191535Z AUTO 00000KT 10SM 31/19 A3004 RMK AO2 T03130191
K6A1 191515Z AUTO 10004KT 10SM 31/20 A3004 RMK AO2 T03110199
K6A1 191455Z AUTO 07005KT 10SM 30/20 A3004 RMK AO2 T03000196
K6A1 191435Z AUTO 06004KT 10SM 29/20 A3004 RMK AO2 T02920197
K6A1 191415Z AUTO 07005KT 10SM 28/20 A3003 RMK AO2 T02820200
K6A1 191355Z AUTO 08004KT 10SM 27/20 A3003 RMK AO2 T02720202
K6A1 191335Z AUTO 05004KT 10SM 26/20 A3003 RMK AO2 T02610201
K6A1 191315Z AUTO 07004KT 10SM 26/20 A3002 RMK AO2 T02570201
K6A1 191255Z AUTO 00000KT 10SM 24/20 A3002 RMK AO2 T02420201
K6A1 191235Z AUTO 03004KT 10SM 23/20 A3000 RMK AO2 T02340201
K6A1 191215Z AUTO 02003KT 10SM 23/20 A3000 RMK AO2 T02280200
K6A1 191155Z AUTO 01003KT 10SM 22/20 A3000 RMK AO2 T02190198 10250 20217
K6A1 191135Z AUTO 01003KT 10SM 22/20 A2999 RMK AO2 T02180196
K6A1 191115Z AUTO 00000KT 10SM 22/20 A2999 RMK AO2 T02170196
K6A1 191055Z AUTO 00000KT 10SM 22/20 A2998 RMK AO2 T02200195
K6A1 191035Z AUTO 00000KT 10SM 22/20 A2998 RMK AO2 T02230195
K6A1 191015Z AUTO 00000KT 10SM 23/20 A2997 RMK AO2 T02250195
K6A1 190955Z AUTO 00000KT 10SM 22/20 A2997 RMK AO2 T02240195
K6A1 190935Z AUTO 00000KT 10SM 23/20 A2996 RMK AO2 T02260195
K6A1 190915Z AUTO 00000KT 10SM 23/19 A2995 RMK AO2 T02310193
K6A1 190855Z AUTO 00000KT 10SM 23/19 A2995 RMK AO2 T02320193
K6A1 190835Z AUTO 36003KT 10SM 23/19 A2995 RMK AO2 T02330193
K6A1 190815Z AUTO 36003KT 10SM 23/19 A2995 RMK AO2 T02330194
K6A1 190755Z AUTO 36003KT 10SM 24/19 A2995 RMK AO2 T02380191
K6A1 190735Z AUTO 36003KT 10SM 24/19 A2994 RMK AO2 T02410190
K6A1 190715Z AUTO 36003KT 10SM 24/19 A2994 RMK AO2 T02430190
K6A1 190655Z AUTO 00000KT 10SM 25/19 A2994 RMK AO2 T02470190
K6A1 190635Z AUTO 36003KT 10SM 24/19 A2995 RMK AO2 T02410190
K6A1 190615Z AUTO 36003KT 10SM 25/19 A2995 RMK AO2 T02450188
K6A1 190555Z AUTO 00000KT 10SM 25/19 A2995 RMK AO2 T02500188 10299 20249 403460221
K6A1 190535Z AUTO 36003KT 10SM 25/19 A2996 RMK AO2 T02520187
K6A1 190515Z AUTO 00000KT 10SM 26/19 A2996 RMK AO2 T02560185
K6A1 190455Z AUTO 35004KT 10SM 26/18 A2996 RMK AO2 T02590183
K6A1 190435Z AUTO 00000KT 10SM 26/19 A2995 RMK AO2 T02560185
K6A1 190415Z AUTO 31003KT 10SM 26/19 A2995 RMK AO2 T02560185
K6A1 190355Z AUTO 33003KT 10SM 27/18 A2995 RMK AO2 T02690181
K6A1 190335Z AUTO 33004KT 10SM 27/18 A2995 RMK AO2 T02660182
K6A1 190315Z AUTO 33003KT 10SM 27/18 A2995 RMK AO2 T02740179
K6A1 190255Z AUTO 34004KT 10SM 28/18 A2995 RMK AO2 T02780176
K6A1 190235Z AUTO 33005KT 10SM 28/18 A2995 RMK AO2 T02780176
K6A1 190215Z AUTO 32004KT 10SM 28/18 A2995 RMK AO2 T02770178
K6A1 190155Z AUTO 33004KT 10SM 28/18 A2995 RMK AO2 T02780177
K6A1 190135Z AUTO 32004KT 10SM 29/17 A2994 RMK AO2 T02870173
K6A1 190115Z AUTO 33003KT 10SM 29/18 A2994 RMK AO2 T02860176
K6A1 190055Z AUTO 33004KT 10SM 29/17 A2994 RMK AO2 T02920172
K6A1 190035Z AUTO 32004KT 10SM 29/17 A2993 RMK AO2 T02940174
K6A1 190015Z AUTO 34003KT 10SM 30/18 A2992 RMK AO2 T02960175
K6A1 182355Z AUTO 33004KT 10SM 30/18 A2992 RMK AO2 T03000175 10346 20300
K6A1 182335Z AUTO 34003KT 10SM 31/17 A2992 RMK AO2 T03060173
K6A1 182315Z AUTO 35004KT 10SM 32/17 A2992 RMK AO2 T03150170
K6A1 182255Z AUTO 35003KT 10SM 33/16 A2991 RMK AO2 T03250160
K6A1 182235Z AUTO 34005KT 10SM 33/15 A2991 RMK AO2 T03290150
K6A1 182215Z AUTO 33006KT 10SM 33/15 A2991 RMK AO2 T03340149
K6A1 182155Z AUTO 34006KT 10SM 34/15 A2990 RMK AO2 T03380149
K6A1 182135Z AUTO 34008KT 10SM 34/15 A2991 RMK AO2 T03390150
K6A1 182115Z AUTO 01008KT 10SM 34/15 A2990 RMK AO2 T03420148
K6A1 182055Z AUTO 35009G14KT 10SM 34/15 A2990 RMK AO2 T03420150
K6A1 182035Z AUTO 34004KT 10SM 34/15 A2991 RMK AO2 T03440147
K6A1 182015Z AUTO 36008KT 10SM 34/15 A2991 RMK AO2 T03420148
K6A1 181955Z AUTO 30007KT 10SM 34/16 A2992 RMK AO2 T03400155
K6A1 181935Z AUTO 33008KT 310V010 10SM 34/16 A2992 RMK AO2 T03350158
K6A1 181915Z AUTO 01009KT 10SM 34/16 A2992 RMK AO2 T03400160
K6A1 181855Z AUTO 32009KT 290V350 10SM 34/17 A2994 RMK AO2 T03410165
K6A1 181835Z AUTO 36006KT 10SM 34/17 A2995 RMK AO2 T03350173
K6A1 181815Z AUTO 30007KT 10SM 34/16 A2996 RMK AO2 T03380163
K6A1 181755Z AUTO 33006KT 10SM 33/18 A2997 RMK AO2 T03320176 10333 20234
K6A1 181735Z AUTO 32005KT 10SM 33/18 A2998 RMK AO2 T03290175
K6A1 181715Z AUTO 29007KT 10SM 33/17 A2998 RMK AO2 T03310173
K6A1 181655Z AUTO 29006KT 270V350 10SM 33/18 A2999 RMK AO2 T03250181
K6A1 181635Z AUTO 36006KT 10SM 32/19 A2999 RMK AO2 T03210188
K6A1 181615Z AUTO 00000KT 10SM 32/19 A3000 RMK AO2 T03180188
K6A1 181555Z AUTO 30005KT 10SM 31/19 A3000 RMK AO2 T03130191
K6A1 181535Z AUTO 35005KT 10SM 31/19 A3000 RMK AO2 T03070194
K6A1 181515Z AUTO 36005KT 10SM 30/20 A3000 RMK AO2 T03030196
K6A1 181455Z AUTO 35003KT 10SM 29/20 A3001 RMK AO2 T02940199
K6A1 181435Z AUTO 34003KT 10SM 29/19 A3001 RMK AO2 T02920193
K6A1 181415Z AUTO 00000KT 10SM 29/19 A3001 RMK AO2 T02860194
K6A1 181355Z AUTO 34003KT 10SM 28/20 A3001 RMK AO2 T02790197
K6A1 181335Z AUTO 00000KT 10SM 27/20 A3001 RMK AO2 T02680198
K6A1 181315Z AUTO 00000KT 10SM 26/21 A3001 RMK AO2 LTG DSNT SE T02590205
K6A1 181255Z AUTO 02003KT 10SM 26/21 A3001 RMK AO2 T02550207
K6A1 181235Z AUTO 00000KT 10SM 25/21 A3000 RMK AO2 T02460208
K6A1 181215Z AUTO 35003KT 10SM 24/21 A3000 RMK AO2 T02390210
K6A1 181155Z AUTO 00000KT 10SM 23/21 A3000 RMK AO2 T02300210 10247 20221
K6A1 181135Z AUTO 00000KT 10SM 22/21 A3000 RMK AO2 T02220205
K6A1 181115Z AUTO 00000KT 10SM 23/21 A3000 RMK AO2 T02270205
K6A1 181055Z AUTO 00000KT 10SM 23/21 A2999 RMK AO2 T02260207
K6A1 181035Z AUTO 00000KT 10SM 22/21 A2999 RMK AO2 T02240205
K6A1 181015Z AUTO 00000KT 10SM 23/21 A2999 RMK AO2 T02330207
K6A1 180955Z AUTO 00000KT 10SM 23/21 A2999 RMK AO2 T02330206
K6A1 180935Z AUTO 00000KT 10SM 23/21 A2999 RMK AO2 T02330208
K6A1 180915Z AUTO 00000KT 10SM 23/21 A2998 RMK AO2 T02280208
K6A1 180855Z AUTO 00000KT 10SM 24/21 A2998 RMK AO2 T02350211
K6A1 180835Z AUTO 36003KT 10SM 24/21 A2997 RMK AO2 T02400212
K6A1 180815Z AUTO 00000KT 10SM 24/21 A2997 RMK AO2 T02410211
K6A1 180755Z AUTO 00000KT 10SM 23/21 A2997 RMK AO2 T02340213
K6A1 180735Z AUTO 00000KT 10SM 23/22 A2997 RMK AO2 LTG DSNT E T02310218
K6A1 180715Z AUTO 00000KT 10SM 23/22 A2997 RMK AO2 T02280215
K6A1 180655Z AUTO 00000KT 10SM 24/22 A2998 RMK AO2 T02350215
K6A1 180635Z AUTO 00000KT 10SM 24/22 A2998 RMK AO2 T02410216
K6A1 180615Z AUTO 00000KT 10SM 25/22 A2998 RMK AO2 T02450218
K6A1 180555Z AUTO 00000KT 10SM 25/22 A2998 RMK AO2 T02470222 10308 20247 403480216
K6A1 180535Z AUTO 00000KT 10SM 25/22 A2998 RMK AO2 T02510220
K6A1 180515Z AUTO 28003KT 10SM 25/22 A2998 RMK AO2 T02510216
K6A1 180455Z AUTO 25003KT 10SM 26/22 A2997 RMK AO2 T02570215
K6A1 180435Z AUTO 26004KT 10SM 26/22 A2997 RMK AO2 T02600216